createdAt,value
2022-08-02T00:00:57.365Z,1.60
2022-08-02T00:03:24.924Z,1.38
2022-08-02T00:05:53.168Z,1.67
2022-08-02T00:08:21.619Z,1.80
2022-08-02T00:10:50.692Z,1.98
2022-08-02T00:13:18.303Z,1.70
2022-08-02T00:15:45.797Z,1.65
2022-08-02T00:18:13.343Z,1.65
2022-08-02T00:20:40.823Z,1.65
2022-08-02T00:23:08.336Z,1.50
2022-08-02T00:25:35.940Z,1.67
2022-08-02T00:28:27.943Z,2.00
2022-08-02T00:30:56.126Z,1.83
2022-08-02T00:34:28.466Z,1.58
2022-08-02T00:36:11.152Z,1.80
2022-08-02T00:38:38.636Z,1.80
2022-08-02T00:41:12.425Z,1.90
2022-08-02T00:43:41.310Z,1.90
2022-08-02T00:46:08.791Z,1.92
2022-08-02T00:48:36.311Z,1.80
2022-08-02T00:51:08.994Z,1.95
2022-08-02T00:53:36.486Z,2.00
2022-08-02T00:56:04.401Z,1.70
2022-08-02T00:58:31.876Z,1.58
2022-08-02T01:01:02.026Z,1.52
2022-08-02T01:03:29.627Z,2.17
2022-08-02T01:06:10.850Z,1.70
2022-08-02T01:08:39.199Z,1.80
2022-08-02T01:11:06.715Z,1.70
2022-08-02T01:13:34.315Z,2.15
2022-08-02T01:16:05.928Z,2.00
2022-08-02T01:18:36.994Z,1.60
2022-08-02T01:21:22.495Z,1.80
2022-08-02T01:23:56.407Z,1.45
2022-08-02T01:26:31.381Z,1.70
2022-08-02T01:29:02.610Z,1.83
2022-08-02T01:31:31.922Z,1.58
2022-08-02T01:34:02.323Z,1.40
2022-08-02T01:38:59.743Z,1.58
2022-08-02T01:41:28.127Z,1.80
2022-08-02T01:43:57.795Z,1.80
2022-08-02T01:46:27.738Z,1.50
2022-08-02T01:48:56.442Z,1.70
2022-08-02T01:51:44.976Z,1.70
2022-08-02T01:54:13.695Z,1.65
2022-08-02T01:56:41.747Z,1.90
2022-08-02T01:59:10.354Z,1.35
2022-08-02T02:01:39.514Z,1.40
2022-08-02T02:04:08.929Z,1.80
2022-08-02T02:06:37.411Z,1.70
2022-08-02T02:09:06.203Z,1.40
2022-08-02T02:12:12.170Z,1.45
2022-08-02T02:14:22.075Z,1.75
2022-08-02T02:16:50.938Z,1.80
2022-08-02T02:19:20.925Z,1.40
2022-08-02T02:24:16.347Z,1.60
2022-08-02T02:26:52.066Z,1.52
2022-08-02T02:29:21.851Z,1.70
2022-08-02T02:31:49.637Z,1.67
2022-08-02T02:34:24.264Z,1.60
2022-08-02T02:36:53.064Z,1.67
2022-08-02T02:39:23.050Z,1.52
2022-08-02T02:41:51.824Z,1.80
2022-08-02T02:44:20.352Z,1.63
2022-08-02T02:46:49.087Z,1.60
2022-08-02T02:49:19.030Z,1.67
2022-08-02T02:51:47.017Z,2.00
2022-08-02T02:54:30.905Z,1.63
2022-08-02T02:57:02.811Z,1.52
2022-08-02T02:59:30.440Z,2.22
2022-08-02T03:01:58.896Z,1.48
2022-08-02T03:04:56.293Z,2.08
2022-08-02T03:07:16.669Z,1.42
2022-08-02T03:09:44.386Z,1.70
2022-08-02T03:12:14.937Z,1.50
2022-08-02T03:14:49.310Z,1.63
2022-08-02T03:17:17.534Z,1.90
2022-08-02T03:19:47.073Z,1.70
2022-08-02T03:22:14.648Z,1.35
2022-08-02T03:24:42.227Z,2.15
2022-08-02T03:27:09.800Z,1.55
2022-08-02T03:29:37.331Z,1.50
2022-08-02T03:32:05.305Z,1.30
2022-08-02T03:34:32.801Z,1.38
2022-08-02T03:37:03.328Z,1.45
2022-08-02T03:39:32.162Z,1.52
2022-08-02T03:41:59.828Z,1.67
2022-08-02T03:44:27.527Z,1.52
2022-08-02T03:46:55.723Z,1.40
2022-08-02T03:49:23.452Z,1.60
2022-08-02T03:51:51.535Z,1.40
2022-08-02T03:54:20.693Z,1.55
2022-08-02T03:56:48.540Z,1.40
2022-08-02T03:59:16.239Z,1.30
2022-08-02T04:01:43.973Z,1.50
2022-08-02T04:04:11.518Z,2.00
2022-08-02T04:06:39.956Z,1.30
2022-08-02T04:09:07.810Z,1.60
2022-08-02T04:11:37.820Z,1.60
2022-08-02T04:14:06.573Z,1.75
2022-08-02T04:16:39.132Z,1.60
2022-08-02T04:19:08.877Z,1.25
2022-08-02T04:21:48.551Z,1.48
2022-08-02T04:24:24.595Z,1.20
2022-08-02T04:26:54.366Z,1.30
2022-08-02T04:29:22.527Z,1.13
2022-08-02T04:31:51.010Z,1.25
2022-08-02T04:34:18.521Z,1.60
2022-08-02T04:36:46.091Z,1.40
2022-08-02T04:39:14.055Z,1.50
2022-08-02T04:41:44.360Z,1.48
2022-08-02T04:44:14.053Z,1.40
2022-08-02T04:46:42.612Z,2.03
2022-08-02T04:49:10.302Z,1.50
2022-08-02T04:51:38.942Z,1.40
2022-08-02T04:54:09.266Z,1.60
2022-08-02T04:56:37.455Z,1.60
2022-08-02T04:59:04.968Z,1.50
2022-08-02T05:01:34.893Z,1.88
2022-08-02T05:04:02.523Z,1.50
2022-08-02T05:06:30.134Z,1.52
2022-08-02T05:08:57.679Z,1.38
2022-08-02T05:11:36.393Z,2.00
2022-08-02T05:14:04.560Z,1.33
2022-08-02T05:16:32.542Z,1.48
2022-08-02T05:19:02.221Z,1.40
2022-08-02T05:21:31.321Z,2.03
2022-08-02T05:23:58.839Z,1.35
2022-08-02T05:26:26.359Z,1.52
2022-08-02T05:28:53.944Z,1.63
2022-08-02T05:31:21.356Z,1.20
2022-08-02T05:33:48.956Z,1.17
2022-08-02T05:36:17.827Z,1.52
2022-08-02T05:38:49.882Z,1.63
2022-08-02T05:41:18.052Z,1.67
2022-08-02T05:43:45.605Z,1.17
2022-08-02T05:46:13.280Z,1.42
2022-08-02T05:48:40.806Z,1.10
2022-08-02T05:51:23.315Z,1.63
2022-08-02T05:53:52.915Z,1.00
2022-08-02T05:56:25.053Z,1.27
2022-08-02T05:58:54.564Z,1.10
2022-08-02T06:01:28.250Z,0.95
2022-08-02T06:03:58.579Z,1.40
2022-08-02T06:08:59.348Z,1.30
2022-08-02T06:11:33.163Z,1.30
2022-08-02T06:14:01.289Z,1.27
2022-08-02T06:16:32.263Z,1.00
2022-08-02T06:19:01.226Z,1.50
2022-08-02T06:22:33.326Z,1.20
2022-08-02T06:24:19.683Z,1.20
2022-08-02T06:26:47.824Z,1.05
2022-08-02T06:29:15.899Z,1.17
2022-08-02T06:31:45.224Z,1.08
2022-08-02T06:34:12.897Z,1.27
2022-08-02T06:36:43.397Z,1.20
2022-08-02T06:39:15.715Z,1.33
2022-08-02T06:41:45.484Z,1.30
2022-08-02T06:44:45.961Z,1.70
2022-08-02T06:47:11.179Z,1.55
2022-08-02T06:49:51.413Z,1.33
2022-08-02T06:52:25.628Z,1.15
2022-08-02T06:54:55.952Z,1.33
2022-08-02T06:57:24.849Z,1.27
2022-08-02T06:59:52.325Z,1.20
2022-08-02T07:02:19.899Z,1.30
2022-08-02T07:04:47.411Z,1.30
2022-08-02T07:07:14.912Z,1.42
2022-08-02T07:09:56.432Z,1.23
2022-08-02T07:12:30.959Z,1.00
2022-08-02T07:14:58.677Z,1.38
2022-08-02T07:17:26.164Z,1.25
2022-08-02T07:19:53.664Z,1.58
2022-08-02T07:22:23.423Z,1.48
2022-08-02T07:24:51.167Z,1.83
2022-08-02T07:27:18.715Z,1.80
2022-08-02T07:29:47.730Z,1.73
2022-08-02T07:32:15.824Z,1.45
2022-08-02T07:34:50.322Z,2.00
2022-08-02T07:37:35.555Z,1.50
2022-08-02T07:40:12.508Z,1.60
2022-08-02T07:42:41.938Z,1.77
2022-08-02T07:45:11.828Z,1.42
2022-08-02T07:47:39.353Z,1.42
2022-08-02T07:50:07.561Z,1.60
2022-08-02T07:52:35.391Z,1.52
2022-08-02T07:55:02.882Z,1.52
2022-08-02T07:57:31.026Z,1.77
2022-08-02T07:59:58.563Z,1.30
2022-08-02T08:02:27.452Z,1.60
2022-08-02T08:04:55.009Z,1.50
2022-08-02T08:07:22.456Z,1.52
2022-08-02T08:09:51.241Z,1.52
2022-08-02T08:12:24.235Z,1.30
2022-08-02T08:14:51.775Z,1.50
2022-08-02T08:17:19.381Z,1.75
2022-08-02T08:19:50.938Z,1.42
2022-08-02T08:22:19.807Z,1.27
2022-08-02T08:24:48.158Z,1.42
2022-08-02T08:27:16.016Z,1.20
2022-08-02T08:29:44.013Z,1.20
2022-08-02T08:32:16.350Z,1.20
2022-08-02T08:34:44.882Z,1.55
2022-08-02T08:37:18.200Z,1.52
2022-08-02T08:39:57.027Z,1.30
2022-08-02T08:42:25.403Z,1.40
2022-08-02T08:44:52.926Z,1.35
2022-08-02T08:47:22.236Z,1.58
2022-08-02T08:49:53.390Z,1.40
2022-08-02T08:52:24.744Z,1.30
2022-08-02T08:54:52.428Z,1.58
2022-08-02T08:57:20.644Z,1.40
2022-08-02T08:59:48.137Z,1.35
2022-08-02T09:02:21.550Z,1.40
2022-08-02T09:04:54.965Z,1.30
2022-08-02T09:07:24.092Z,1.23
2022-08-02T09:09:51.584Z,1.20
2022-08-02T09:12:22.137Z,1.10
2022-08-02T09:14:50.230Z,1.20
2022-08-02T09:17:18.463Z,1.20
2022-08-02T09:19:46.536Z,1.08
2022-08-02T09:22:16.204Z,1.20
2022-08-02T09:24:46.994Z,1.25
2022-08-02T09:27:15.205Z,1.58
2022-08-02T09:30:11.649Z,1.23
2022-08-02T09:32:44.848Z,1.00
2022-08-02T09:35:12.319Z,1.27
2022-08-02T09:37:39.841Z,0.95
2022-08-02T09:40:10.780Z,1.00
2022-08-02T09:42:38.977Z,1.00
2022-08-02T09:45:07.080Z,1.23
2022-08-02T09:47:37.382Z,1.08
2022-08-02T09:50:05.316Z,1.00
2022-08-02T09:52:37.288Z,1.15
2022-08-02T09:55:13.456Z,1.20
2022-08-02T09:57:41.011Z,1.20
2022-08-02T10:00:14.001Z,1.27
2022-08-02T10:03:00.382Z,0.93
2022-08-02T10:05:30.957Z,1.17
2022-08-02T10:08:04.065Z,1.20
2022-08-02T10:10:32.939Z,1.20
2022-08-02T10:13:00.465Z,1.10
2022-08-02T10:15:27.979Z,1.08
2022-08-02T10:17:55.496Z,1.10
2022-08-02T10:20:23.262Z,0.95
2022-08-02T10:22:51.495Z,0.90
2022-08-02T10:25:20.041Z,0.98
2022-08-02T10:28:04.819Z,0.93
2022-08-02T10:30:34.193Z,1.05
2022-08-02T10:33:02.117Z,1.25
2022-08-02T10:35:31.108Z,1.00
2022-08-02T10:38:01.722Z,1.30
2022-08-02T10:40:44.531Z,1.10
2022-08-02T10:43:14.265Z,1.00
2022-08-02T10:45:41.771Z,1.10
2022-08-02T10:48:10.209Z,1.00
2022-08-02T10:50:53.608Z,1.00
2022-08-02T10:53:22.292Z,0.95
2022-08-02T10:55:49.768Z,1.33
2022-08-02T10:58:19.109Z,0.90
2022-08-02T11:00:46.717Z,0.95
2022-08-02T11:03:32.897Z,1.40
2022-08-02T11:06:07.733Z,1.05
2022-08-02T11:08:35.539Z,1.02
2022-08-02T11:11:16.184Z,1.23
2022-08-02T11:14:03.541Z,1.13
2022-08-02T11:16:49.482Z,1.10
2022-08-02T11:19:16.937Z,1.13
2022-08-02T11:22:00.798Z,1.00
2022-08-02T11:24:29.374Z,1.10
2022-08-02T11:26:57.284Z,0.95
2022-08-02T11:29:38.664Z,1.02
2022-08-02T11:32:07.205Z,1.02
2022-08-02T11:34:37.512Z,1.48
2022-08-02T11:37:05.481Z,1.27
2022-08-02T11:39:33.087Z,1.27
2022-08-02T11:42:01.613Z,1.45
2022-08-02T11:44:29.927Z,0.82
2022-08-02T11:46:59.885Z,1.10
2022-08-02T11:51:55.975Z,1.15
2022-08-02T11:54:24.169Z,0.82
2022-08-02T11:56:51.681Z,1.50
2022-08-02T11:59:19.184Z,0.85
2022-08-02T12:01:46.706Z,1.10
2022-08-02T12:04:22.501Z,0.90
2022-08-02T12:09:18.976Z,1.02
2022-08-02T12:11:49.181Z,1.00
2022-08-02T12:17:01.533Z,1.05
2022-08-02T12:19:30.364Z,0.80
2022-08-02T12:22:08.065Z,0.90
2022-08-02T12:24:35.747Z,0.90
2022-08-02T12:27:03.576Z,0.98
2022-08-02T12:29:58.137Z,1.10
2022-08-02T12:32:24.703Z,0.93
2022-08-02T12:35:02.814Z,0.80
2022-08-02T12:37:30.248Z,1.00
2022-08-02T12:39:57.792Z,1.15
2022-08-02T12:42:25.463Z,0.90
2022-08-02T12:44:53.877Z,1.00
2022-08-02T12:47:22.230Z,0.90
2022-08-02T12:50:04.706Z,0.80
2022-08-02T12:52:33.620Z,0.80
2022-08-02T12:55:01.217Z,0.82
2022-08-02T12:57:28.752Z,0.90
2022-08-02T12:59:56.234Z,1.20
2022-08-02T13:02:23.937Z,0.98
2022-08-02T13:04:51.496Z,1.02
2022-08-02T13:07:19.162Z,1.10
2022-08-02T13:09:50.039Z,1.23
2022-08-02T13:12:17.929Z,1.10
2022-08-02T13:14:45.581Z,1.10
2022-08-02T13:17:13.037Z,1.10
2022-08-02T13:19:40.832Z,1.00
2022-08-02T13:22:11.485Z,0.90
2022-08-02T13:24:56.650Z,0.80
2022-08-02T13:27:26.420Z,0.88
2022-08-02T13:29:54.661Z,1.02
2022-08-02T13:32:22.720Z,0.90
2022-08-02T13:34:51.057Z,0.90
2022-08-02T13:37:18.980Z,0.90
2022-08-02T13:40:00.512Z,1.00
2022-08-02T13:42:35.279Z,0.93
2022-08-02T13:45:12.837Z,1.05
2022-08-02T13:47:57.445Z,0.80
2022-08-02T13:50:30.151Z,0.93
2022-08-02T13:52:57.677Z,1.25
2022-08-02T13:55:25.228Z,1.13
2022-08-02T13:57:54.479Z,1.05
2022-08-02T14:00:34.218Z,0.82
2022-08-02T14:03:03.741Z,0.90
2022-08-02T14:05:39.467Z,1.10
2022-08-02T14:08:17.262Z,1.00
2022-08-02T14:10:45.090Z,0.80
2022-08-02T14:13:14.082Z,0.73
2022-08-02T14:15:41.530Z,0.80
2022-08-02T14:18:09.026Z,1.10
2022-08-02T14:20:36.529Z,0.93
2022-08-02T14:23:04.035Z,0.80
2022-08-02T14:25:32.019Z,1.02
2022-08-02T14:27:59.538Z,0.82
2022-08-02T14:30:28.505Z,1.08
2022-08-02T14:32:57.027Z,0.88
2022-08-02T14:35:24.557Z,1.02
2022-08-02T14:37:52.188Z,0.88
2022-08-02T14:40:27.832Z,1.10
2022-08-02T14:42:59.130Z,1.10
2022-08-02T14:45:40.529Z,1.00
2022-08-02T14:48:09.798Z,1.10
2022-08-02T14:50:37.312Z,0.93
2022-08-02T14:53:04.809Z,0.98
2022-08-02T14:55:32.352Z,1.02
2022-08-02T14:57:59.877Z,1.10
2022-08-02T15:00:28.930Z,0.93
2022-08-02T15:02:56.540Z,0.88
2022-08-02T15:05:24.075Z,1.08
2022-08-02T15:07:51.669Z,0.80
2022-08-02T15:10:19.222Z,1.10
2022-08-02T15:12:46.688Z,1.10
2022-08-02T15:15:14.197Z,0.90
2022-08-02T15:17:42.999Z,1.02
2022-08-02T15:20:24.674Z,1.13
2022-08-02T15:22:53.392Z,0.95
2022-08-02T15:25:21.595Z,1.30
2022-08-02T15:27:49.314Z,0.98
2022-08-02T15:30:16.796Z,0.80
2022-08-02T15:32:53.365Z,1.02
2022-08-02T15:35:21.265Z,1.17
2022-08-02T15:37:48.718Z,1.15
2022-08-02T15:40:16.167Z,1.30
2022-08-02T15:42:44.530Z,1.00
2022-08-02T15:45:15.342Z,1.08
2022-08-02T15:47:48.106Z,0.95
2022-08-02T15:50:20.492Z,1.35
2022-08-02T15:52:48.134Z,1.00
2022-08-02T15:55:15.648Z,1.25
2022-08-02T15:57:43.187Z,1.17
2022-08-02T16:00:15.746Z,1.08
2022-08-02T16:02:46.850Z,1.10
2022-08-02T16:05:15.390Z,1.00
2022-08-02T16:07:44.217Z,1.00
2022-08-02T16:10:11.923Z,1.05
2022-08-02T16:12:39.408Z,1.40
2022-08-02T16:15:07.610Z,0.98
2022-08-02T16:17:49.075Z,1.30
2022-08-02T16:20:22.083Z,1.20
2022-08-02T16:22:50.981Z,1.30
2022-08-02T16:25:18.663Z,1.20
2022-08-02T16:28:06.871Z,1.17
2022-08-02T16:30:33.725Z,1.25
2022-08-02T16:33:01.551Z,1.20
2022-08-02T16:35:29.092Z,1.00
2022-08-02T16:37:57.947Z,1.33
2022-08-02T16:40:25.472Z,1.25
2022-08-02T16:42:52.949Z,1.05
2022-08-02T16:45:21.292Z,0.90
2022-08-02T16:47:57.389Z,1.10
2022-08-02T16:50:27.180Z,1.00
2022-08-02T16:52:56.106Z,1.20
2022-08-02T16:55:25.005Z,0.93
2022-08-02T16:57:52.720Z,1.20
2022-08-02T17:00:24.561Z,0.93
2022-08-02T17:02:52.120Z,1.20
2022-08-02T17:05:21.038Z,1.27
2022-08-02T17:08:15.941Z,1.00
2022-08-02T17:10:39.152Z,1.33
2022-08-02T17:13:11.273Z,1.10
2022-08-02T17:16:16.657Z,1.10
2022-08-02T17:18:27.092Z,1.30
2022-08-02T17:20:55.292Z,1.00
2022-08-02T17:23:22.792Z,1.05
2022-08-02T17:29:17.426Z,1.00
2022-08-02T17:34:34.169Z,1.10
2022-08-02T17:37:01.880Z,1.00
2022-08-02T17:39:34.519Z,1.33
2022-08-02T17:42:15.376Z,1.10
2022-08-02T17:44:49.152Z,1.40
2022-08-02T17:47:42.298Z,1.10
2022-08-02T17:50:12.325Z,1.27
2022-08-02T17:52:51.364Z,1.15
2022-08-02T17:55:20.770Z,1.40
2022-08-02T17:57:57.001Z,1.10
2022-08-02T18:00:26.692Z,1.23
2022-08-02T18:02:55.458Z,1.52
2022-08-02T18:05:23.332Z,1.30
2022-08-02T18:08:07.224Z,1.55
2022-08-02T18:10:34.815Z,1.58
2022-08-02T18:13:05.203Z,1.58
2022-08-02T18:18:26.619Z,1.60
2022-08-02T18:20:57.748Z,1.70
2022-08-02T18:23:25.164Z,1.50
2022-08-02T18:25:55.391Z,1.70
2022-08-02T18:28:26.672Z,1.50
2022-08-02T18:30:54.424Z,1.40
2022-08-02T18:33:59.168Z,1.63
2022-08-02T18:36:10.211Z,1.40
2022-08-02T18:38:42.346Z,1.75
2022-08-02T18:41:13.304Z,1.40
2022-08-02T18:43:46.107Z,1.90
2022-08-02T18:46:16.182Z,1.90
2022-08-02T18:51:36.544Z,1.65
2022-08-02T18:54:04.559Z,1.73
2022-08-02T18:56:32.647Z,1.70
2022-08-02T18:59:02.938Z,2.13
2022-08-02T19:01:31.870Z,1.70
2022-08-02T19:04:01.175Z,1.83
2022-08-02T19:06:29.016Z,2.33
2022-08-02T19:09:05.605Z,2.80
2022-08-02T19:11:41.049Z,2.05
2022-08-02T19:14:10.151Z,2.05
2022-08-02T19:16:38.240Z,3.72
2022-08-02T19:19:06.249Z,2.88
2022-08-02T19:22:26.443Z,2.00
2022-08-02T19:24:21.470Z,2.90
2022-08-02T19:26:52.070Z,1.77
2022-08-02T19:29:42.404Z,2.10
2022-08-02T19:32:40.792Z,1.80
2022-08-02T19:35:00.189Z,1.60
2022-08-02T19:37:36.942Z,2.13
2022-08-02T19:40:07.903Z,2.33
2022-08-02T19:44:20.504Z,2.10
2022-08-02T19:45:50.311Z,1.55
2022-08-02T19:48:14.816Z,1.48
2022-08-02T19:50:48.962Z,2.08
2022-08-02T19:53:17.134Z,2.53
2022-08-02T19:56:00.336Z,2.13
2022-08-02T19:58:30.889Z,2.08
2022-08-02T20:01:01.356Z,2.25
2022-08-02T20:03:51.110Z,2.30
2022-08-02T20:06:17.741Z,2.00
2022-08-02T20:08:52.956Z,2.10
2022-08-02T20:11:24.629Z,2.30
2022-08-02T20:13:52.767Z,4.40
2022-08-02T20:16:28.342Z,2.70
2022-08-02T20:19:00.801Z,2.00
2022-08-02T20:21:35.825Z,2.30
2022-08-02T20:24:05.860Z,3.65
2022-08-02T20:26:35.211Z,2.58
2022-08-02T20:29:03.447Z,2.58
2022-08-02T20:31:32.415Z,2.47
2022-08-02T20:33:59.920Z,2.13
2022-08-02T20:36:27.861Z,2.22
2022-08-02T20:38:55.534Z,1.73
2022-08-02T20:41:23.242Z,2.08
2022-08-02T20:43:50.735Z,2.03
2022-08-02T20:46:18.223Z,1.80
2022-08-02T20:48:47.080Z,2.03
2022-08-02T20:51:14.705Z,2.30
2022-08-02T20:53:55.097Z,2.05
2022-08-02T20:56:24.013Z,2.47
2022-08-02T20:58:52.146Z,2.42
2022-08-02T21:01:39.224Z,2.13
2022-08-02T21:04:13.221Z,2.20
2022-08-02T21:06:47.072Z,2.30
2022-08-02T21:09:14.642Z,2.40
2022-08-02T21:11:50.766Z,2.55
2022-08-02T21:14:18.862Z,2.50
2022-08-02T21:16:46.345Z,2.50
2022-08-02T21:19:15.423Z,2.55
2022-08-02T21:21:43.491Z,2.60
2022-08-02T21:24:12.299Z,2.10
2022-08-02T21:26:40.469Z,2.42
2022-08-02T21:29:09.415Z,2.50
2022-08-02T21:31:36.935Z,2.20
2022-08-02T21:34:21.574Z,2.45
2022-08-02T21:36:51.552Z,2.13
2022-08-02T21:39:19.243Z,1.98
2022-08-02T21:41:48.046Z,2.03
2022-08-02T21:47:03.360Z,2.35
2022-08-02T21:50:09.534Z,1.60
2022-08-02T21:52:25.385Z,1.80
2022-08-02T21:54:55.108Z,2.13
2022-08-02T21:57:23.185Z,1.85
2022-08-02T21:59:52.988Z,2.05
2022-08-02T22:02:30.531Z,1.80
2022-08-02T22:04:58.522Z,1.73
2022-08-02T22:07:27.487Z,2.20
2022-08-02T22:09:55.351Z,2.30
2022-08-02T22:12:25.986Z,3.00
2022-08-02T22:14:55.724Z,2.78
2022-08-02T22:17:50.437Z,2.13
2022-08-02T22:20:13.679Z,2.05
2022-08-02T22:22:42.855Z,1.88
2022-08-02T22:25:27.066Z,2.55
2022-08-02T22:28:13.290Z,1.90
2022-08-02T22:30:46.144Z,2.13
2022-08-02T22:33:37.768Z,2.10
2022-08-02T22:36:07.222Z,1.80
2022-08-02T22:38:44.494Z,2.25
2022-08-02T22:41:12.524Z,2.08
2022-08-02T22:43:40.294Z,1.83
2022-08-02T22:46:09.201Z,1.70
2022-08-02T22:48:40.063Z,2.33
2022-08-02T22:51:07.884Z,1.85
2022-08-02T22:53:36.257Z,1.70
2022-08-02T22:56:05.679Z,2.00
2022-08-02T22:58:33.277Z,1.90
2022-08-02T22:58:38.930Z,1.40
2022-08-02T22:58:51.315Z,1.13
2022-08-02T22:58:58.363Z,1.50
2022-08-02T22:59:00.691Z,1.52
2022-08-02T22:59:03.435Z,2.03
2022-08-02T23:01:01.038Z,1.80
2022-08-02T23:03:28.625Z,1.60
2022-08-02T23:05:56.196Z,2.20
2022-08-02T23:08:24.265Z,2.05
2022-08-02T23:10:51.764Z,2.03
2022-08-02T23:13:23.250Z,1.92
2022-08-02T23:16:10.527Z,1.90
2022-08-02T23:18:55.535Z,1.80
2022-08-02T23:21:45.991Z,2.10
2022-08-02T23:24:10.888Z,1.83
2022-08-02T23:26:38.544Z,1.50
2022-08-02T23:29:07.388Z,1.92
2022-08-02T23:31:37.532Z,1.90
2022-08-02T23:34:06.126Z,1.73
2022-08-02T23:36:34.011Z,2.13
2022-08-02T23:39:01.582Z,1.85
2022-08-02T23:41:29.044Z,1.83
2022-08-02T23:44:13.111Z,2.13
2022-08-02T23:46:43.114Z,1.75
2022-08-02T23:49:12.473Z,1.90
2022-08-02T23:51:40.025Z,2.00
2022-08-02T23:54:07.582Z,2.35
2022-08-02T23:56:35.168Z,1.85
2022-08-02T23:59:02.672Z,1.83
